Time;durP1;ratioP1;P1;durP2;ratioP2;P2;SDS_P1;SDS_P2;PMS_P1;PMS_P2;Temp;Humidity;BMP_temperature;BMP_pressure;BME280_temperature;BME280_humidity;BME280_pressure;Samples;Min_cycle;Max_cycle;Signal;HPM_P1;HPM_P2
2022/04/08 00:00:20;;;;;;;1.70;0.60;;;;;;;9.22;46.47;97152.06;5071194;28;44517;-78
2022/04/08 00:02:49;;;;;;;2.60;0.70;;;;;;;9.29;46.46;97168.22;5071186;28;43276;-78
2022/04/08 00:05:16;;;;;;;2.90;0.60;;;;;;;9.31;46.87;97167.13;5071950;28;40236;-78
2022/04/08 00:07:44;;;;;;;3.80;0.60;;;;;;;9.33;46.76;97165.19;5072447;28;41910;-77
2022/04/08 00:10:13;;;;;;;2.60;0.47;;;;;;;9.33;46.81;97182.84;5053864;28;42084;-77
2022/04/08 00:12:40;;;;;;;1.97;0.40;;;;;;;9.27;47.02;97176.25;5053313;28;41586;-79
2022/04/08 00:15:09;;;;;;;0.83;0.73;;;;;;;9.25;46.87;97170.31;5070860;28;40627;-80
2022/04/08 00:17:37;;;;;;;1.77;0.60;;;;;;;9.08;47.34;97162.94;5073966;28;41542;-79
2022/04/08 00:20:05;;;;;;;2.00;0.70;;;;;;;9.22;47.57;97175.84;5055463;28;42922;-79
2022/04/08 00:22:38;;;;;;;5.20;0.70;;;;;;;9.20;47.06;97190.13;5072774;28;42262;-77
2022/04/08 00:25:06;;;;;;;1.30;0.80;;;;;;;9.14;48.16;97177.44;5055631;28;40368;-79
2022/04/08 00:27:35;;;;;;;3.60;0.90;;;;;;;8.68;48.40;97124.97;5073928;28;41626;-78
2022/04/08 00:30:03;;;;;;;2.30;0.40;;;;;;;9.17;47.89;97200.94;5072062;28;42548;-80
2022/04/08 00:32:33;;;;;;;3.23;0.90;;;;;;;9.14;47.94;97206.50;5053739;28;42211;-78
2022/04/08 00:35:01;;;;;;;1.20;0.83;;;;;;;9.12;47.93;97208.41;5071639;28;39889;-78
2022/04/08 00:37:28;;;;;;;2.77;0.70;;;;;;;9.15;47.91;97194.97;5070344;28;42116;-78
2022/04/08 00:39:56;;;;;;;2.97;0.50;;;;;;;9.18;48.32;97198.16;5070142;28;43717;-78
2022/04/08 00:42:23;;;;;;;1.53;0.63;;;;;;;9.09;48.21;97188.38;5070413;28;42196;-78
2022/04/08 00:44:52;;;;;;;0.77;0.63;;;;;;;9.14;48.56;97190.66;5069541;28;39109;-78
2022/04/08 00:47:19;;;;;;;2.33;0.87;;;;;;;9.08;48.67;97201.72;5070471;28;42716;-79
2022/04/08 00:49:47;;;;;;;2.00;0.60;;;;;;;8.99;49.00;97217.34;5070151;28;41875;-78
2022/04/08 00:52:15;;;;;;;1.70;0.57;;;;;;;8.97;48.87;97211.34;5069248;28;41213;-77
2022/04/08 00:54:44;;;;;;;5.10;1.10;;;;;;;9.02;49.08;97215.44;5071186;28;40018;-80
2022/04/08 00:57:12;;;;;;;3.37;0.73;;;;;;;8.94;49.26;97211.59;5071081;28;42917;-79
2022/04/08 00:59:39;;;;;;;1.60;1.03;;;;;;;8.95;49.30;97212.44;5070192;28;42899;-78
2022/04/08 01:02:08;;;;;;;2.37;0.47;;;;;;;8.96;48.98;97214.97;5081546;28;41380;-78
2022/04/08 01:04:36;;;;;;;2.20;0.50;;;;;;;8.79;48.81;97212.84;5091045;28;40658;-78
2022/04/08 01:07:04;;;;;;;5.20;0.90;;;;;;;8.90;48.70;97236.56;5089882;28;40667;-79
2022/04/08 01:09:31;;;;;;;3.23;0.53;;;;;;;8.91;48.53;97230.31;5090743;28;43808;-78
2022/04/08 01:11:59;;;;;;;1.00;0.60;;;;;;;8.92;48.82;97239.09;5089742;28;41269;-78
2022/04/08 01:14:26;;;;;;;3.60;0.70;;;;;;;8.88;48.83;97233.25;5089592;28;39916;-78
2022/04/08 01:16:54;;;;;;;2.90;0.63;;;;;;;8.88;49.09;97245.59;5107475;28;40982;-78
2022/04/08 01:19:23;;;;;;;4.27;0.80;;;;;;;8.87;48.82;97244.75;5073111;28;41622;-78
2022/04/08 01:21:50;;;;;;;1.73;0.63;;;;;;;8.77;49.17;97235.91;5073132;28;41718;-79
2022/04/08 01:24:19;;;;;;;3.20;0.73;;;;;;;8.80;49.15;97248.84;5091279;28;39922;-78
2022/04/08 01:26:48;;;;;;;2.53;0.70;;;;;;;8.56;49.02;97222.63;5123929;27;42726;-80
2022/04/08 01:29:16;;;;;;;1.70;0.67;;;;;;;8.79;48.67;97259.50;5072887;28;42009;-79
2022/04/08 01:31:45;;;;;;;2.43;0.70;;;;;;;8.73;49.65;97265.31;5089989;28;41341;-79
2022/04/08 01:34:13;;;;;;;1.10;0.60;;;;;;;8.72;49.08;97269.75;5090114;28;40883;-79
2022/04/08 01:36:41;;;;;;;1.80;0.60;;;;;;;8.77;49.32;97279.94;5107022;28;40881;-79
2022/04/08 01:39:08;;;;;;;4.60;0.70;;;;;;;8.78;49.59;97263.94;5124078;27;42541;-79
2022/04/08 01:41:36;;;;;;;4.67;0.80;;;;;;;8.74;49.77;97286.28;5089731;28;42391;-80
2022/04/08 01:44:05;;;;;;;5.00;1.03;;;;;;;8.59;49.36;97253.22;5072618;28;40295;-78
2022/04/08 01:46:32;;;;;;;2.83;0.57;;;;;;;8.68;49.81;97281.50;5091040;28;41765;-80
2022/04/08 01:48:59;;;;;;;4.17;0.97;;;;;;;8.63;49.49;97270.47;5090773;28;42677;-78
2022/04/08 01:51:27;;;;;;;3.20;0.50;;;;;;;8.53;49.96;97259.00;5090832;28;43193;-80
2022/04/08 01:53:55;;;;;;;3.13;0.73;;;;;;;8.61;49.85;97273.25;5072865;28;39905;-78
2022/04/08 01:56:22;;;;;;;2.33;0.60;;;;;;;8.64;49.87;97288.00;5072940;28;40748;-79
2022/04/08 01:58:50;;;;;;;3.30;0.83;;;;;;;8.63;49.57;97286.31;5106159;28;41758;-78
2022/04/08 02:01:18;;;;;;;2.57;0.67;;;;;;;8.67;50.00;97282.44;5089615;28;42590;-78
2022/04/08 02:03:46;;;;;;;1.73;0.50;;;;;;;8.61;50.25;97288.22;5074214;28;39153;-78
2022/04/08 02:06:14;;;;;;;1.90;0.63;;;;;;;8.61;50.34;97291.72;5092889;28;40773;-81
2022/04/08 02:08:41;;;;;;;1.17;0.73;;;;;;;8.60;50.50;97294.47;5093023;28;42441;-79
2022/04/08 02:11:09;;;;;;;1.30;0.67;;;;;;;8.56;50.28;97295.66;5093233;28;43176;-78
2022/04/08 02:13:37;;;;;;;2.70;0.70;;;;;;;8.55;50.84;97297.47;5074967;28;39016;-78
2022/04/08 02:16:05;;;;;;;3.20;0.97;;;;;;;8.56;50.96;97300.94;5075869;28;40567;-78
2022/04/08 02:18:34;;;;;;;1.37;0.60;;;;;;;8.49;51.06;97299.75;5071516;28;42839;-78
2022/04/08 02:21:01;;;;;;;2.57;0.93;;;;;;;8.47;51.53;97301.66;5077967;28;43257;-78
2022/04/08 02:23:28;;;;;;;2.23;0.57;;;;;;;8.43;51.67;97305.50;5072442;28;38502;-78
2022/04/08 02:25:56;;;;;;;2.97;0.60;;;;;;;8.41;52.03;97302.13;5072504;28;41609;-78
2022/04/08 02:28:24;;;;;;;1.13;0.60;;;;;;;8.40;52.06;97308.41;5072369;28;42544;-78
2022/04/08 02:30:52;;;;;;;2.40;0.90;;;;;;;8.37;51.89;97311.28;5073759;28;41999;-77
2022/04/08 02:33:20;;;;;;;1.47;0.77;;;;;;;8.35;51.88;97310.53;5055972;28;39392;-78
2022/04/08 02:35:49;;;;;;;4.53;0.80;;;;;;;8.30;52.46;97303.78;5072396;28;41719;-78
2022/04/08 02:38:16;;;;;;;3.10;0.97;;;;;;;8.33;51.88;97320.38;5073641;28;42820;-78
2022/04/08 02:40:44;;;;;;;2.57;0.70;;;;;;;8.35;52.32;97329.00;5055415;28;41065;-78
2022/04/08 02:43:11;;;;;;;1.20;0.70;;;;;;;8.32;52.47;97334.50;5055374;28;40892;-79
2022/04/08 02:45:38;;;;;;;1.67;0.50;;;;;;;8.31;52.42;97325.72;5055686;28;40833;-77
2022/04/08 02:48:06;;;;;;;2.87;0.77;;;;;;;8.28;52.55;97342.63;5073477;28;42675;-78
2022/04/08 02:50:33;;;;;;;1.07;0.50;;;;;;;8.30;52.57;97340.72;5073647;28;43008;-78
2022/04/08 02:53:02;;;;;;;3.97;0.83;;;;;;;8.11;52.72;97316.75;5055200;28;38736;-78
2022/04/08 02:55:30;;;;;;;2.00;0.67;;;;;;;8.26;53.04;97328.75;5072516;28;41687;-78
2022/04/08 02:57:57;;;;;;;1.90;0.87;;;;;;;8.21;53.19;97333.53;5055016;28;41773;-78
2022/04/08 03:00:25;;;;;;;3.03;0.90;;;;;;;8.20;52.99;97347.66;5073461;28;42239;-78
2022/04/08 03:02:52;;;;;;;1.53;0.50;;;;;;;8.15;53.07;97341.91;5073134;28;39986;-77
2022/04/08 03:05:20;;;;;;;0.73;0.40;;;;;;;8.19;53.11;97348.63;5055139;28;42146;-77
2022/04/08 03:07:48;;;;;;;3.17;0.70;;;;;;;8.23;53.49;97336.03;5072097;28;43507;-79
2022/04/08 03:10:17;;;;;;;2.70;0.90;;;;;;;8.29;53.24;97346.94;5055009;28;41231;-78
2022/04/08 03:12:44;;;;;;;0.60;0.40;;;;;;;8.35;53.18;97344.84;5071319;28;40123;-78
2022/04/08 03:15:12;;;;;;;2.13;0.80;;;;;;;8.38;53.24;97355.16;5072409;28;41603;-78
2022/04/08 03:17:39;;;;;;;3.43;0.63;;;;;;;8.38;53.28;97360.44;5071935;28;43081;-78
2022/04/08 03:20:08;;;;;;;5.83;0.67;;;;;;;8.37;53.33;97356.09;5072097;28;42177;-77
2022/04/08 03:22:36;;;;;;;2.37;0.60;;;;;;;8.34;53.17;97358.97;5071660;28;40026;-79
2022/04/08 03:25:04;;;;;;;3.37;0.70;;;;;;;8.33;53.30;97363.41;5083413;28;42094;-79
2022/04/08 03:27:32;;;;;;;4.30;1.07;;;;;;;8.30;53.24;97363.59;5071695;28;42584;-79
2022/04/08 03:30:00;;;;;;;1.73;0.60;;;;;;;8.30;53.42;97359.19;5054052;28;42084;-78
2022/04/08 03:32:27;;;;;;;3.90;0.70;;;;;;;8.26;53.86;97356.91;5071217;28;40945;-78
2022/04/08 03:34:58;;;;;;;3.03;0.60;;;;;;;8.17;53.76;97350.53;5071506;28;40771;-79
2022/04/08 03:37:26;;;;;;;6.50;1.07;;;;;;;8.19;53.83;97369.72;5072648;28;43500;-79
2022/04/08 03:39:54;;;;;;;2.70;0.90;;;;;;;8.16;54.14;97362.03;5053425;28;42172;-78
2022/04/08 03:42:21;;;;;;;3.73;1.00;;;;;;;8.16;54.31;97367.31;5091334;28;40951;-80
2022/04/08 03:44:51;;;;;;;4.87;1.27;;;;;;;8.08;54.38;97345.97;5090629;28;41570;-79
2022/04/08 03:47:19;;;;;;;3.70;0.70;;;;;;;8.23;54.21;97363.25;5048736;28;41561;-77
2022/04/08 03:49:47;;;;;;;0.93;0.50;;;;;;;8.20;54.17;97368.75;5050965;28;40956;-78
2022/04/08 03:52:14;;;;;;;4.03;0.73;;;;;;;8.04;54.61;97346.31;5050911;28;38836;-79
2022/04/08 03:54:42;;;;;;;3.33;0.87;;;;;;;8.08;54.43;97359.16;5052541;28;40626;-78
2022/04/08 03:57:10;;;;;;;3.13;0.90;;;;;;;8.06;54.71;97361.06;5054059;28;41756;-78
2022/04/08 03:59:38;;;;;;;1.17;0.70;;;;;;;8.15;54.84;97363.00;5072592;28;42425;-78
2022/04/08 04:02:07;;;;;;;2.57;0.70;;;;;;;8.14;54.73;97371.03;5071030;28;40789;-78
2022/04/08 04:04:35;;;;;;;2.47;1.07;;;;;;;8.15;54.72;97365.66;5053405;28;40894;-78
2022/04/08 04:07:02;;;;;;;4.77;0.80;;;;;;;8.30;55.08;97382.91;5071630;28;43026;-78
2022/04/08 04:09:30;;;;;;;1.07;0.67;;;;;;;8.17;55.06;97358.44;5070362;28;41020;-78
2022/04/08 04:11:57;;;;;;;3.37;0.80;;;;;;;8.20;55.58;97383.72;5070542;28;39997;-79
2022/04/08 04:14:25;;;;;;;5.00;0.90;;;;;;;8.23;55.79;97388.78;5067839;28;42693;-79
2022/04/08 04:16:52;;;;;;;3.87;0.73;;;;;;;8.24;55.18;97390.47;5070808;28;43565;-78
2022/04/08 04:19:21;;;;;;;4.03;0.77;;;;;;;8.22;55.47;97401.13;5080864;28;42935;-78
2022/04/08 04:21:50;;;;;;;2.40;0.87;;;;;;;8.25;56.10;97398.25;5073824;28;39691;-78
2022/04/08 04:24:17;;;;;;;2.33;0.83;;;;;;;8.31;55.78;97407.47;5074000;28;40961;-79
2022/04/08 04:26:45;;;;;;;5.07;0.80;;;;;;;8.34;55.79;97407.28;5069975;28;41825;-78
2022/04/08 04:29:12;;;;;;;2.93;0.67;;;;;;;8.30;55.81;97390.81;5071759;28;42176;-80
2022/04/08 04:31:40;;;;;;;2.23;0.70;;;;;;;8.44;55.49;97410.06;5071724;28;41431;-78
2022/04/08 04:34:08;;;;;;;2.57;0.87;;;;;;;8.53;55.52;97430.47;5070484;28;41142;-78
2022/04/08 04:36:37;;;;;;;5.17;0.70;;;;;;;8.56;55.81;97432.84;5070837;28;44219;-78
2022/04/08 04:39:04;;;;;;;3.87;0.97;;;;;;;8.62;55.40;97443.78;5070148;28;42295;-78
2022/04/08 04:41:33;;;;;;;3.77;1.10;;;;;;;8.51;57.12;97411.28;5053270;28;39066;-77
2022/04/08 04:44:01;;;;;;;2.33;0.60;;;;;;;8.65;58.09;97432.16;5052678;28;40458;-77
2022/04/08 04:46:28;;;;;;;1.97;0.60;;;;;;;8.61;58.19;97430.72;5069370;28;43474;-78
2022/04/08 04:48:56;;;;;;;2.73;0.80;;;;;;;8.64;58.79;97441.03;5071306;28;42414;-77
2022/04/08 04:51:23;;;;;;;2.20;0.60;;;;;;;8.45;59.44;97424.94;5070546;28;40006;-77
2022/04/08 04:53:52;;;;;;;2.00;0.80;;;;;;;8.59;59.75;97459.84;5086431;28;40728;-77
2022/04/08 04:56:19;;;;;;;1.00;0.73;;;;;;;8.58;61.25;97452.06;5069899;28;42975;-78
2022/04/08 04:58:47;;;;;;;0.97;0.70;;;;;;;8.54;61.17;97450.59;5052911;28;41211;-77
2022/04/08 05:01:14;;;;;;;1.47;0.97;;;;;;;8.50;62.24;97459.72;5067638;28;40907;-77
2022/04/08 05:03:42;;;;;;;3.10;1.20;;;;;;;8.46;62.07;97468.81;5053508;28;41108;-78
2022/04/08 05:06:09;;;;;;;3.30;0.80;;;;;;;8.41;62.64;97463.03;5070958;28;42788;-78
2022/04/08 05:08:37;;;;;;;2.67;0.63;;;;;;;8.37;62.75;97469.53;5070513;28;42172;-77
2022/04/08 05:11:06;;;;;;;1.07;0.67;;;;;;;8.29;63.30;97467.41;5069574;28;41752;-78
2022/04/08 05:13:33;;;;;;;0.50;0.50;;;;;;;8.22;63.44;97467.06;5069318;28;40683;-77
2022/04/08 05:16:01;;;;;;;1.63;0.90;;;;;;;8.08;64.73;97450.56;5052597;28;43155;-77
2022/04/08 05:18:28;;;;;;;3.17;0.70;;;;;;;8.08;65.42;97459.34;5069693;28;42489;-77
2022/04/08 05:20:56;;;;;;;3.30;0.73;;;;;;;8.03;66.64;97466.75;5069528;28;38272;-78
2022/04/08 05:23:28;;;;;;;1.73;0.70;;;;;;;8.01;66.00;97467.81;5069652;28;40756;-78
2022/04/08 05:25:56;;;;;;;2.00;1.37;;;;;;;7.98;65.56;97479.44;5051865;28;41739;-78
2022/04/08 05:28:25;;;;;;;1.00;0.77;;;;;;;8.00;65.52;97477.53;5069574;28;42007;-76
2022/04/08 05:30:53;;;;;;;1.13;0.70;;;;;;;7.99;65.25;97475.84;5069507;28;39878;-78
2022/04/08 05:33:21;;;;;;;1.60;0.70;;;;;;;8.00;65.30;97484.59;5051876;28;40657;-78
2022/04/08 05:35:48;;;;;;;1.03;0.67;;;;;;;7.98;66.61;97484.69;5068467;28;42162;-78
2022/04/08 05:38:16;;;;;;;1.10;1.00;;;;;;;8.00;65.94;97488.06;5070005;28;43269;-78
2022/04/08 05:40:44;;;;;;;1.73;0.60;;;;;;;8.03;65.32;97498.38;5049834;28;39314;-77
2022/04/08 05:43:11;;;;;;;0.70;0.70;;;;;;;8.07;65.42;97499.81;5032102;28;41672;-78
2022/04/08 05:45:40;;;;;;;3.30;0.80;;;;;;;8.13;65.21;97499.38;5048273;28;42680;-78
2022/04/08 05:48:08;;;;;;;0.87;0.77;;;;;;;8.22;65.04;97500.50;5062324;28;43209;-78
2022/04/08 05:50:36;;;;;;;1.60;0.73;;;;;;;8.25;64.78;97493.19;5069039;28;38717;-78
2022/04/08 05:53:03;;;;;;;1.00;0.60;;;;;;;8.22;64.40;97498.69;5069079;28;41907;-77
2022/04/08 05:55:31;;;;;;;0.80;0.53;;;;;;;8.22;64.39;97497.84;5068424;28;41993;-78
2022/04/08 05:57:58;;;;;;;0.97;0.60;;;;;;;8.19;64.25;97480.47;5068234;28;42743;-79
2022/04/08 06:00:26;;;;;;;1.80;0.60;;;;;;;8.47;63.83;97507.44;5050877;28;42075;-79
2022/04/08 06:02:56;;;;;;;1.67;0.90;;;;;;;8.61;63.59;97508.06;5067091;28;41734;-78
2022/04/08 06:05:24;;;;;;;0.93;0.50;;;;;;;8.78;64.02;97492.75;5065381;28;42507;-77
2022/04/08 06:07:53;;;;;;;1.07;0.70;;;;;;;9.02;63.70;97492.66;5070165;28;43038;-78
2022/04/08 06:10:22;;;;;;;1.20;0.67;;;;;;;9.31;63.10;97488.56;5063831;28;40901;-79
2022/04/08 06:12:50;;;;;;;2.03;0.73;;;;;;;9.51;62.64;97495.75;5051183;28;40443;-78
2022/04/08 06:15:18;;;;;;;1.70;0.97;;;;;;;9.52;61.92;97465.69;5059739;28;42632;-76
2022/04/08 06:17:46;;;;;;;2.93;0.70;;;;;;;9.81;61.55;97486.31;5068863;28;42118;-79
2022/04/08 06:20:17;;;;;;;2.10;0.60;;;;;;;9.91;61.34;97487.22;5068948;28;40620;-80
2022/04/08 06:22:47;;;;;;;2.73;1.10;;;;;;;9.97;61.35;97482.28;5067752;28;42089;-79
2022/04/08 06:25:16;;;;;;;1.97;0.70;;;;;;;10.08;60.85;97457.59;5052023;28;41679;-81
2022/04/08 06:27:45;;;;;;;2.80;1.17;;;;;;;10.39;60.26;97487.66;5067138;28;42070;-79
2022/04/08 06:30:15;;;;;;;0.97;0.67;;;;;;;10.59;59.95;97478.06;5058501;28;39975;-77
2022/04/08 06:32:43;;;;;;;0.93;0.70;;;;;;;10.58;59.38;97463.16;5068312;28;41714;-79
2022/04/08 06:35:12;;;;;;;3.13;0.93;;;;;;;10.73;59.35;97472.44;5057159;28;42765;-78
2022/04/08 06:37:41;;;;;;;1.23;0.70;;;;;;;10.79;59.04;97490.44;5048981;28;42401;-78
2022/04/08 06:40:11;;;;;;;1.60;1.07;;;;;;;11.01;59.43;97492.94;5059289;28;39932;-80
2022/04/08 06:42:39;;;;;;;0.63;0.50;;;;;;;11.03;58.93;97483.03;5068486;28;42058;-88
2022/04/08 06:45:08;;;;;;;1.83;0.80;;;;;;;11.13;58.49;97478.63;5041490;28;41639;-86
2022/04/08 06:47:45;;;;;;;2.37;0.90;;;;;;;11.29;57.74;97499.34;5052144;28;42186;-84
2022/04/08 06:50:12;;;;;;;1.13;0.73;;;;;;;11.31;57.44;97488.59;5041004;28;40030;-84
2022/04/08 06:52:41;;;;;;;2.00;1.00;;;;;;;11.55;56.35;97502.34;5035417;28;41570;-81
2022/04/08 06:55:10;;;;;;;4.17;1.13;;;;;;;11.57;56.03;97481.03;5044888;28;43260;-86
2022/04/08 06:57:38;;;;;;;1.87;1.13;;;;;;;11.83;54.77;97509.59;5071776;28;42235;-79
2022/04/08 07:00:08;;;;;;;4.37;1.00;;;;;;;11.96;55.04;97498.72;5071316;28;38319;-81
2022/04/08 07:02:36;;;;;;;3.47;1.00;;;;;;;12.11;53.00;97504.47;5055063;28;41618;-82
2022/04/08 07:05:05;;;;;;;1.37;1.07;;;;;;;12.38;53.10;97507.25;5070465;28;42815;-81
2022/04/08 07:07:33;;;;;;;4.23;1.20;;;;;;;12.78;51.95;97508.91;5055030;28;42728;-80
2022/04/08 07:10:03;;;;;;;4.33;1.17;;;;;;;13.06;50.10;97508.00;5070695;28;40920;-81
2022/04/08 07:12:31;;;;;;;1.87;1.03;;;;;;;13.44;49.33;97511.53;5071269;28;42704;-84
2022/04/08 07:14:58;;;;;;;4.27;1.00;;;;;;;13.42;49.17;97511.69;5044237;28;41762;-83
2022/04/08 07:17:27;;;;;;;1.60;0.97;;;;;;;13.49;49.55;97501.28;5052842;28;40943;-83
2022/04/08 07:19:56;;;;;;;4.40;1.83;;;;;;;13.52;48.04;97506.31;5071533;28;39070;-83
2022/04/08 07:22:24;;;;;;;3.83;1.17;;;;;;;13.43;47.93;97485.94;5072186;28;40761;-82
2022/04/08 07:24:52;;;;;;;4.57;0.93;;;;;;;13.62;46.97;97504.44;5071089;28;41806;-81
2022/04/08 07:27:22;;;;;;;6.83;1.10;;;;;;;13.70;47.32;97499.25;5071280;28;43455;-82
2022/04/08 07:29:50;;;;;;;1.20;0.70;;;;;;;13.72;47.03;97501.75;5062849;28;40980;-83
2022/04/08 07:32:21;;;;;;;2.23;1.00;;;;;;;13.72;46.79;97478.66;5051161;28;40478;-82
2022/04/08 07:34:50;;;;;;;3.47;1.20;;;;;;;13.81;46.47;97475.09;5058998;28;42341;-82
2022/04/08 07:37:28;;;;;;;2.97;0.90;;;;;;;14.11;45.13;97511.16;5054356;28;41774;-85
2022/04/08 07:39:56;;;;;;;1.73;1.20;;;;;;;14.11;44.73;97512.97;5054701;28;40092;-85
2022/04/08 07:42:25;;;;;;;5.80;1.50;;;;;;;14.06;45.38;97499.31;5071545;28;42806;-81
2022/04/08 07:44:53;;;;;;;2.67;1.60;;;;;;;13.92;45.29;97477.53;5045423;28;41782;-82
2022/04/08 07:47:22;;;;;;;4.07;1.57;;;;;;;14.13;44.91;97482.56;5036494;28;41571;-80
2022/04/08 07:49:50;;;;;;;4.63;1.10;;;;;;;14.48;45.35;97505.72;5062007;28;39732;-80
2022/04/08 07:52:17;;;;;;;1.33;0.87;;;;;;;14.76;44.20;97510.94;5077251;28;43181;-79
2022/04/08 07:54:45;;;;;;;3.57;1.20;;;;;;;14.76;43.41;97519.78;5065400;28;42708;-80
2022/04/08 07:57:14;;;;;;;2.13;1.37;;;;;;;14.76;42.80;97506.47;5055092;28;42290;-82
2022/04/08 07:59:43;;;;;;;2.10;0.90;;;;;;;14.76;43.27;97500.28;5057993;28;38955;-79
2022/04/08 08:02:11;;;;;;;3.70;1.70;;;;;;;14.67;43.32;97499.41;5052977;28;42265;-78
2022/04/08 08:04:39;;;;;;;5.67;2.03;;;;;;;14.64;43.08;97499.69;5047329;28;43281;-78
2022/04/08 08:07:07;;;;;;;3.43;1.93;;;;;;;14.70;42.47;97483.09;5034406;28;42266;-81
2022/04/08 08:09:35;;;;;;;5.07;1.00;;;;;;;15.10;42.16;97514.53;5034401;28;38658;-82
2022/04/08 08:12:04;;;;;;;2.63;1.50;;;;;;;15.40;41.75;97514.03;5049928;28;40571;-78
2022/04/08 08:14:32;;;;;;;4.10;1.33;;;;;;;15.63;42.28;97492.16;5039565;28;42977;-82
2022/04/08 08:17:01;;;;;;;3.07;1.07;;;;;;;15.93;40.99;97517.47;5070344;28;41629;-79
2022/04/08 08:19:29;;;;;;;3.90;1.27;;;;;;;15.98;41.57;97510.63;5070365;28;39082;-78
2022/04/08 08:21:56;;;;;;;3.30;1.30;;;;;;;16.46;40.92;97499.19;5086836;28;40754;-78
2022/04/08 08:24:24;;;;;;;3.07;1.17;;;;;;;16.93;39.90;97519.16;5053304;28;41452;-80
2022/04/08 08:26:52;;;;;;;2.43;1.33;;;;;;;16.80;39.42;97499.09;5069582;28;41839;-80
2022/04/08 08:29:19;;;;;;;3.10;1.17;;;;;;;16.91;39.73;97499.75;5049906;28;41253;-80
2022/04/08 08:31:47;;;;;;;3.10;1.23;;;;;;;16.93;39.50;97503.09;5050927;28;40752;-84
2022/04/08 08:34:16;;;;;;;2.17;1.20;;;;;;;17.00;38.60;97510.28;5072384;28;41671;-78
2022/04/08 08:36:44;;;;;;;3.97;1.30;;;;;;;16.93;37.87;97503.09;5079700;28;42628;-80
2022/04/08 08:39:12;;;;;;;1.87;1.10;;;;;;;16.65;38.58;97494.59;5080182;28;39799;-79
2022/04/08 08:41:40;;;;;;;2.57;1.13;;;;;;;16.60;37.84;97503.06;5098623;28;41899;-78
2022/04/08 08:44:08;;;;;;;4.53;1.57;;;;;;;16.43;39.43;97483.53;5062057;28;43447;-79
2022/04/08 08:46:36;;;;;;;2.53;1.60;;;;;;;16.08;39.23;97497.97;5061348;28;42462;-78
2022/04/08 08:49:05;;;;;;;4.27;1.70;;;;;;;15.84;40.05;97489.91;5054229;28;39133;-81
2022/04/08 08:51:37;;;;;;;2.87;1.30;;;;;;;15.71;40.52;97478.84;5033985;28;40866;-82
2022/04/08 08:54:05;;;;;;;3.23;1.27;;;;;;;15.48;40.56;97472.38;5050248;28;42939;-85
2022/04/08 08:56:33;;;;;;;2.47;0.83;;;;;;;15.32;40.18;97484.66;5070857;28;42320;-83
2022/04/08 08:59:01;;;;;;;4.10;1.30;;;;;;;15.28;41.02;97456.63;5053670;28;39280;-84
2022/04/08 09:01:28;;;;;;;2.40;1.27;;;;;;;15.42;41.14;97474.72;5071233;28;41658;-84
2022/04/08 09:03:56;;;;;;;2.60;1.17;;;;;;;15.69;40.77;97487.03;5053689;28;41852;-86
2022/04/08 09:06:24;;;;;;;2.27;1.40;;;;;;;15.68;39.52;97489.88;5072275;28;42242;-84
2022/04/08 09:09:05;;;;;;;2.40;0.93;;;;;;;15.57;39.74;97479.47;5070060;28;39500;-86
2022/04/08 09:11:33;;;;;;;2.43;1.20;;;;;;;15.50;40.23;97486.41;5053535;28;41672;-82
2022/04/08 09:14:05;;;;;;;2.37;1.40;;;;;;;15.39;41.01;97480.34;5051763;28;41781;-81
2022/04/08 09:16:38;;;;;;;3.23;1.30;;;;;;;15.32;41.11;97460.66;5069686;28;41068;-80
2022/04/08 09:19:12;;;;;;;4.20;1.40;;;;;;;15.27;40.91;97464.78;5065793;28;40966;-82
2022/04/08 09:21:50;;;;;;;5.60;1.20;;;;;;;15.27;41.23;97462.13;5049824;28;40841;-81
2022/04/08 09:24:23;;;;;;;4.23;1.20;;;;;;;15.19;40.77;97460.25;5069172;28;41701;-77
2022/04/08 09:26:52;;;;;;;2.43;1.17;;;;;;;15.18;41.10;97447.94;5067125;28;43152;-77
2022/04/08 09:29:20;;;;;;;4.17;1.23;;;;;;;15.09;40.39;97451.50;5065563;28;39007;-82
2022/04/08 09:31:49;;;;;;;3.73;1.13;;;;;;;14.89;41.14;97445.59;5066322;28;42222;-80
2022/04/08 09:34:18;;;;;;;3.43;0.80;;;;;;;14.67;42.41;97430.13;5032097;28;42055;-81
2022/04/08 09:36:47;;;;;;;2.47;1.20;;;;;;;14.50;42.76;97423.81;5033789;28;42484;-82
2022/04/08 09:39:16;;;;;;;4.37;1.27;;;;;;;14.45;43.24;97410.16;5049606;28;39155;-83
2022/04/08 09:41:49;;;;;;;3.73;1.37;;;;;;;14.47;44.42;97408.16;5050543;28;42761;-80
2022/04/08 09:44:25;;;;;;;2.73;1.40;;;;;;;14.49;43.35;97406.16;5076290;28;42807;-87
2022/04/08 09:46:53;;;;;;;3.67;1.00;;;;;;;14.35;44.25;97396.03;5086920;28;41143;-83
2022/04/08 09:49:21;;;;;;;1.17;0.80;;;;;;;14.18;43.42;97386.28;5052598;28;38800;-85
2022/04/08 09:51:51;;;;;;;3.57;1.20;;;;;;;14.21;43.22;97409.94;5053140;28;41095;-86
2022/04/08 09:54:22;;;;;;;1.87;0.80;;;;;;;14.00;42.19;97416.38;5051522;28;41650;-83
2022/04/08 09:56:53;;;;;;;1.90;1.00;;;;;;;13.85;43.23;97401.94;5069374;28;42754;-83
2022/04/08 09:59:23;;;;;;;2.17;0.90;;;;;;;13.81;44.98;97371.31;5064993;28;39562;-81
2022/04/08 10:01:52;;;;;;;2.13;1.20;;;;;;;13.85;44.89;97379.81;5050530;28;41538;-85
2022/04/08 10:04:21;;;;;;;2.13;0.77;;;;;;;13.74;44.92;97362.25;5051085;28;43283;-79
2022/04/08 10:06:49;;;;;;;2.33;1.73;;;;;;;13.75;44.92;97374.56;5069676;28;43212;-80
2022/04/08 10:09:19;;;;;;;4.50;0.80;;;;;;;13.72;45.55;97366.91;5052088;28;39589;-86
2022/04/08 10:11:58;;;;;;;1.20;0.67;;;;;;;13.63;45.01;97367.81;5052389;28;40791;-82
2022/04/08 10:14:39;;;;;;;3.03;0.90;;;;;;;13.47;45.77;97351.69;5053878;28;42761;-79
2022/04/08 10:17:06;;;;;;;3.03;0.83;;;;;;;13.47;46.87;97354.34;5068965;28;41119;-78
2022/04/08 10:19:34;;;;;;;2.33;0.90;;;;;;;13.23;46.22;97331.81;5064105;28;40886;-80
2022/04/08 10:22:02;;;;;;;2.87;0.90;;;;;;;13.20;47.11;97348.09;5050157;28;42548;-80
2022/04/08 10:24:33;;;;;;;2.10;0.80;;;;;;;13.13;48.07;97335.50;5038391;28;41729;-78
2022/04/08 10:27:09;;;;;;;2.27;0.90;;;;;;;13.06;49.39;97313.16;5072408;28;41387;-80
2022/04/08 10:29:37;;;;;;;1.83;0.73;;;;;;;12.92;49.28;97317.16;5070592;28;39842;-79
2022/04/08 10:32:13;;;;;;;2.23;1.00;;;;;;;12.80;51.15;97313.03;5072008;28;41513;-79
2022/04/08 10:34:41;;;;;;;3.47;1.13;;;;;;;12.64;51.43;97300.38;5065969;28;43226;-79
2022/04/08 10:37:16;;;;;;;2.57;1.40;;;;;;;12.56;51.92;97297.63;5063056;28;41494;-82
2022/04/08 10:39:57;;;;;;;1.53;0.87;;;;;;;12.37;52.66;97279.94;5046729;28;39991;-82
2022/04/08 10:42:28;;;;;;;1.30;0.87;;;;;;;12.20;53.39;97273.59;5055788;28;40555;-81
2022/04/08 10:44:56;;;;;;;0.93;0.70;;;;;;;12.02;54.25;97255.88;5072627;28;42990;-82
2022/04/08 10:47:24;;;;;;;3.53;1.20;;;;;;;11.98;55.03;97254.53;5071939;28;41422;-77
2022/04/08 10:49:53;;;;;;;1.67;0.80;;;;;;;11.86;56.15;97237.94;5073128;28;40162;-79
2022/04/08 10:52:23;;;;;;;1.33;0.60;;;;;;;11.76;56.26;97231.78;5054743;28;41115;-77
2022/04/08 10:54:51;;;;;;;1.60;0.90;;;;;;;11.57;56.15;97219.41;5070983;28;42855;-81
2022/04/08 10:57:34;;;;;;;2.13;0.60;;;;;;;11.66;57.00;97215.88;5071788;28;42266;-83
2022/04/08 11:00:05;;;;;;;3.30;0.80;;;;;;;11.70;57.06;97219.09;5071436;28;39875;-82
2022/04/08 11:02:36;;;;;;;1.77;1.63;;;;;;;11.62;57.50;97213.69;5072129;28;41695;-82
2022/04/08 11:05:05;;;;;;;1.77;0.50;;;;;;;11.45;57.63;97207.28;5068939;28;43662;-79
2022/04/08 11:07:33;;;;;;;3.13;1.00;;;;;;;11.26;58.49;97188.72;5072137;28;42145;-80
2022/04/08 11:10:01;;;;;;;3.97;1.00;;;;;;;11.14;59.92;97186.22;5071780;28;39752;-86
2022/04/08 11:12:31;;;;;;;1.73;0.70;;;;;;;11.11;59.75;97191.81;5071186;28;40764;-77
2022/04/08 11:15:00;;;;;;;1.93;0.80;;;;;;;11.10;60.70;97187.50;5062152;28;42763;-78
2022/04/08 11:17:35;;;;;;;2.40;0.87;;;;;;;11.04;60.60;97166.84;5051703;28;42486;-84
2022/04/08 11:20:04;;;;;;;3.47;1.10;;;;;;;11.00;60.51;97160.16;5045089;28;38656;-85
2022/04/08 11:22:39;;;;;;;0.90;0.53;;;;;;;10.91;61.37;97163.66;5055063;28;40653;-80
2022/04/08 11:25:08;;;;;;;3.53;0.90;;;;;;;10.53;62.03;97113.31;5060621;28;42162;-80
2022/04/08 11:27:37;;;;;;;2.20;0.80;;;;;;;10.82;61.91;97182.19;5051027;28;42315;-80
2022/04/08 11:30:09;;;;;;;1.43;1.33;;;;;;;10.78;62.00;97177.16;5044243;28;40078;-81
2022/04/08 11:32:39;;;;;;;0.90;0.83;;;;;;;10.74;62.75;97182.88;5054635;28;40890;-76
2022/04/08 11:35:14;;;;;;;2.93;0.90;;;;;;;10.70;63.42;97176.19;5071144;28;42959;-76
2022/04/08 11:37:41;;;;;;;3.17;1.10;;;;;;;10.68;64.25;97154.31;5070057;28;42240;-79
2022/04/08 11:40:15;;;;;;;0.90;0.70;;;;;;;10.78;64.77;97165.72;5043412;28;38996;-79
2022/04/08 11:42:45;;;;;;;3.70;0.90;;;;;;;10.65;63.98;97173.09;5051563;28;41605;-78
2022/04/08 11:45:13;;;;;;;2.17;0.70;;;;;;;10.70;64.16;97178.84;5035961;28;41281;-76